<?xml version="1.0" encoding="UTF-8" standalone="no" ?>
<gpx xmlns="http://www.topografix.com/GPX/1/1" xmlns:xsi="http://www.w3.org/2001/XMLSchema-instance" xsi:schemaLocation="http://www.topografix.com/GPX/1/1 http://www.topografix.com/GPX/1/1/gpx.xsd" version="1.1" creator="VisuGPX - https://www.visugpx.com">
  <metadata>
    <name>Saint-Laurent  Les étangs-Barbin</name>
  </metadata>
  <trk>
    <name><![CDATA[14634842-MPS Les étangs-Barbin]]></name>
    <trkseg>
      <trkpt lat="46.95924" lon="-0.89983">
        <ele>141</ele>
        <time>2022-04-26T09:04:36Z</time>
      </trkpt>
      <trkpt lat="46.95913" lon="-0.8997">
        <ele>141</ele>
        <time>2022-04-26T09:04:47Z</time>
      </trkpt>
      <trkpt lat="46.95906" lon="-0.89965">
        <ele>140</ele>
        <time>2022-04-26T09:04:54Z</time>
      </trkpt>
      <trkpt lat="46.95876" lon="-0.8997">
        <ele>140</ele>
        <time>2022-04-26T09:05:18Z</time>
      </trkpt>
      <trkpt lat="46.95853" lon="-0.8998">
        <ele>139</ele>
        <time>2022-04-26T09:05:37Z</time>
      </trkpt>
      <trkpt lat="46.95843" lon="-0.89988">
        <ele>140</ele>
        <time>2022-04-26T09:05:46Z</time>
      </trkpt>
      <trkpt lat="46.9582" lon="-0.89993">
        <ele>139</ele>
        <time>2022-04-26T09:06:05Z</time>
      </trkpt>
      <trkpt lat="46.95804" lon="-0.90019">
        <ele>140</ele>
        <time>2022-04-26T09:06:24Z</time>
      </trkpt>
      <trkpt lat="46.9578" lon="-0.90046">
        <ele>140</ele>
        <time>2022-04-26T09:06:48Z</time>
      </trkpt>
      <trkpt lat="46.95761" lon="-0.90127">
        <ele>144</ele>
        <time>2022-04-26T09:07:35Z</time>
      </trkpt>
      <trkpt lat="46.95747" lon="-0.90157">
        <ele>147</ele>
        <time>2022-04-26T09:07:55Z</time>
      </trkpt>
      <trkpt lat="46.95735" lon="-0.90194">
        <ele>149</ele>
        <time>2022-04-26T09:08:17Z</time>
      </trkpt>
      <trkpt lat="46.9573" lon="-0.90228">
        <ele>150</ele>
        <time>2022-04-26T09:08:36Z</time>
      </trkpt>
      <trkpt lat="46.9576" lon="-0.90286">
        <ele>149</ele>
        <time>2022-04-26T09:09:16Z</time>
      </trkpt>
      <trkpt lat="46.95783" lon="-0.90306">
        <ele>150</ele>
        <time>2022-04-26T09:09:37Z</time>
      </trkpt>
      <trkpt lat="46.95798" lon="-0.90305">
        <ele>151</ele>
        <time>2022-04-26T09:09:49Z</time>
      </trkpt>
      <trkpt lat="46.95889" lon="-0.90263">
        <ele>152</ele>
        <time>2022-04-26T09:11:06Z</time>
      </trkpt>
      <trkpt lat="46.95971" lon="-0.90248">
        <ele>150</ele>
        <time>2022-04-26T09:12:12Z</time>
      </trkpt>
      <trkpt lat="46.95979" lon="-0.90282">
        <ele>149</ele>
        <time>2022-04-26T09:12:32Z</time>
      </trkpt>
      <trkpt lat="46.95987" lon="-0.90333">
        <ele>148</ele>
        <time>2022-04-26T09:13:00Z</time>
      </trkpt>
      <trkpt lat="46.96005" lon="-0.90422">
        <ele>149</ele>
        <time>2022-04-26T09:13:51Z</time>
      </trkpt>
      <trkpt lat="46.96008" lon="-0.9049">
        <ele>149</ele>
        <time>2022-04-26T09:14:28Z</time>
      </trkpt>
      <trkpt lat="46.95999" lon="-0.90555">
        <ele>149</ele>
        <time>2022-04-26T09:15:04Z</time>
      </trkpt>
      <trkpt lat="46.95995" lon="-0.90601">
        <ele>149</ele>
        <time>2022-04-26T09:15:30Z</time>
      </trkpt>
      <trkpt lat="46.96001" lon="-0.90646">
        <ele>150</ele>
        <time>2022-04-26T09:15:55Z</time>
      </trkpt>
      <trkpt lat="46.96013" lon="-0.90662">
        <ele>150</ele>
        <time>2022-04-26T09:16:08Z</time>
      </trkpt>
      <trkpt lat="46.96047" lon="-0.90676">
        <ele>151</ele>
        <time>2022-04-26T09:16:36Z</time>
      </trkpt>
      <trkpt lat="46.96088" lon="-0.9072">
        <ele>152</ele>
        <time>2022-04-26T09:17:17Z</time>
      </trkpt>
      <trkpt lat="46.96145" lon="-0.90731">
        <ele>154</ele>
        <time>2022-04-26T09:18:03Z</time>
      </trkpt>
      <trkpt lat="46.96188" lon="-0.90788">
        <ele>155</ele>
        <time>2022-04-26T09:18:49Z</time>
      </trkpt>
      <trkpt lat="46.96297" lon="-0.90916">
        <ele>157</ele>
        <time>2022-04-26T09:20:41Z</time>
      </trkpt>
      <trkpt lat="46.96397" lon="-0.91015">
        <ele>153</ele>
        <time>2022-04-26T09:22:18Z</time>
      </trkpt>
      <trkpt lat="46.96401" lon="-0.91028">
        <ele>152</ele>
        <time>2022-04-26T09:22:25Z</time>
      </trkpt>
      <trkpt lat="46.964" lon="-0.91095">
        <ele>149</ele>
        <time>2022-04-26T09:23:02Z</time>
      </trkpt>
      <trkpt lat="46.96405" lon="-0.91109">
        <ele>148</ele>
        <time>2022-04-26T09:23:11Z</time>
      </trkpt>
      <trkpt lat="46.96443" lon="-0.91149">
        <ele>147</ele>
        <time>2022-04-26T09:23:48Z</time>
      </trkpt>
      <trkpt lat="46.96486" lon="-0.91206">
        <ele>144</ele>
        <time>2022-04-26T09:24:35Z</time>
      </trkpt>
      <trkpt lat="46.96521" lon="-0.91259">
        <ele>139</ele>
        <time>2022-04-26T09:25:15Z</time>
      </trkpt>
      <trkpt lat="46.96531" lon="-0.91305">
        <ele>137</ele>
        <time>2022-04-26T09:25:41Z</time>
      </trkpt>
      <trkpt lat="46.96538" lon="-0.91357">
        <ele>136</ele>
        <time>2022-04-26T09:26:10Z</time>
      </trkpt>
      <trkpt lat="46.96548" lon="-0.91411">
        <ele>135</ele>
        <time>2022-04-26T09:26:41Z</time>
      </trkpt>
      <trkpt lat="46.96562" lon="-0.91466">
        <ele>135</ele>
        <time>2022-04-26T09:27:13Z</time>
      </trkpt>
      <trkpt lat="46.96569" lon="-0.91511">
        <ele>135</ele>
        <time>2022-04-26T09:27:38Z</time>
      </trkpt>
      <trkpt lat="46.96595" lon="-0.91522">
        <ele>132</ele>
        <time>2022-04-26T09:28:00Z</time>
      </trkpt>
      <trkpt lat="46.96628" lon="-0.9155">
        <ele>125</ele>
        <time>2022-04-26T09:28:30Z</time>
      </trkpt>
      <trkpt lat="46.9664" lon="-0.91568">
        <ele>122</ele>
        <time>2022-04-26T09:28:44Z</time>
      </trkpt>
      <trkpt lat="46.96647" lon="-0.91587">
        <ele>120</ele>
        <time>2022-04-26T09:28:56Z</time>
      </trkpt>
      <trkpt lat="46.96645" lon="-0.91599">
        <ele>119</ele>
        <time>2022-04-26T09:29:03Z</time>
      </trkpt>
      <trkpt lat="46.96656" lon="-0.91614">
        <ele>116</ele>
        <time>2022-04-26T09:29:15Z</time>
      </trkpt>
      <trkpt lat="46.96671" lon="-0.91626">
        <ele>113</ele>
        <time>2022-04-26T09:29:28Z</time>
      </trkpt>
      <trkpt lat="46.967" lon="-0.91628">
        <ele>110</ele>
        <time>2022-04-26T09:29:52Z</time>
      </trkpt>
      <trkpt lat="46.96725" lon="-0.91608">
        <ele>108</ele>
        <time>2022-04-26T09:30:14Z</time>
      </trkpt>
      <trkpt lat="46.96732" lon="-0.91604">
        <ele>107</ele>
        <time>2022-04-26T09:30:20Z</time>
      </trkpt>
      <trkpt lat="46.96749" lon="-0.91626">
        <ele>104</ele>
        <time>2022-04-26T09:30:38Z</time>
      </trkpt>
      <trkpt lat="46.96755" lon="-0.91631">
        <ele>104</ele>
        <time>2022-04-26T09:30:44Z</time>
      </trkpt>
      <trkpt lat="46.96781" lon="-0.91613">
        <ele>103</ele>
        <time>2022-04-26T09:31:07Z</time>
      </trkpt>
      <trkpt lat="46.96786" lon="-0.91609">
        <ele>103</ele>
        <time>2022-04-26T09:31:12Z</time>
      </trkpt>
      <trkpt lat="46.96795" lon="-0.91605">
        <ele>103</ele>
        <time>2022-04-26T09:31:19Z</time>
      </trkpt>
      <trkpt lat="46.96817" lon="-0.91612">
        <ele>102</ele>
        <time>2022-04-26T09:31:37Z</time>
      </trkpt>
      <trkpt lat="46.96827" lon="-0.91613">
        <ele>102</ele>
        <time>2022-04-26T09:31:45Z</time>
      </trkpt>
      <trkpt lat="46.96834" lon="-0.91608">
        <ele>101</ele>
        <time>2022-04-26T09:31:51Z</time>
      </trkpt>
      <trkpt lat="46.96872" lon="-0.9156">
        <ele>104</ele>
        <time>2022-04-26T09:32:32Z</time>
      </trkpt>
      <trkpt lat="46.96922" lon="-0.91471">
        <ele>106</ele>
        <time>2022-04-26T09:33:35Z</time>
      </trkpt>
      <trkpt lat="46.96932" lon="-0.91422">
        <ele>109</ele>
        <time>2022-04-26T09:34:03Z</time>
      </trkpt>
      <trkpt lat="46.96948" lon="-0.91225">
        <ele>111</ele>
        <time>2022-04-26T09:35:51Z</time>
      </trkpt>
      <trkpt lat="46.96942" lon="-0.91108">
        <ele>108</ele>
        <time>2022-04-26T09:36:55Z</time>
      </trkpt>
      <trkpt lat="46.96988" lon="-0.90989">
        <ele>113</ele>
        <time>2022-04-26T09:38:10Z</time>
      </trkpt>
      <trkpt lat="46.96998" lon="-0.90974">
        <ele>115</ele>
        <time>2022-04-26T09:38:21Z</time>
      </trkpt>
      <trkpt lat="46.96994" lon="-0.90924">
        <ele>114</ele>
        <time>2022-04-26T09:38:49Z</time>
      </trkpt>
      <trkpt lat="46.96967" lon="-0.90832">
        <ele>112</ele>
        <time>2022-04-26T09:39:43Z</time>
      </trkpt>
      <trkpt lat="46.96955" lon="-0.90804">
        <ele>111</ele>
        <time>2022-04-26T09:40:01Z</time>
      </trkpt>
      <trkpt lat="46.96949" lon="-0.90767">
        <ele>112</ele>
        <time>2022-04-26T09:40:22Z</time>
      </trkpt>
      <trkpt lat="46.96942" lon="-0.90746">
        <ele>111</ele>
        <time>2022-04-26T09:40:35Z</time>
      </trkpt>
      <trkpt lat="46.96941" lon="-0.90739">
        <ele>112</ele>
        <time>2022-04-26T09:40:39Z</time>
      </trkpt>
      <trkpt lat="46.96932" lon="-0.9072">
        <ele>112</ele>
        <time>2022-04-26T09:40:52Z</time>
      </trkpt>
      <trkpt lat="46.96902" lon="-0.90694">
        <ele>110</ele>
        <time>2022-04-26T09:41:19Z</time>
      </trkpt>
      <trkpt lat="46.96893" lon="-0.90684">
        <ele>110</ele>
        <time>2022-04-26T09:41:29Z</time>
      </trkpt>
      <trkpt lat="46.96884" lon="-0.90665">
        <ele>110</ele>
        <time>2022-04-26T09:41:41Z</time>
      </trkpt>
      <trkpt lat="46.96842" lon="-0.9061">
        <ele>109</ele>
        <time>2022-04-26T09:42:26Z</time>
      </trkpt>
      <trkpt lat="46.96828" lon="-0.90585">
        <ele>108</ele>
        <time>2022-04-26T09:42:44Z</time>
      </trkpt>
      <trkpt lat="46.96825" lon="-0.90567">
        <ele>108</ele>
        <time>2022-04-26T09:42:54Z</time>
      </trkpt>
      <trkpt lat="46.96804" lon="-0.90562">
        <ele>108</ele>
        <time>2022-04-26T09:43:11Z</time>
      </trkpt>
      <trkpt lat="46.96798" lon="-0.90552">
        <ele>108</ele>
        <time>2022-04-26T09:43:18Z</time>
      </trkpt>
      <trkpt lat="46.96789" lon="-0.90549">
        <ele>108</ele>
        <time>2022-04-26T09:43:26Z</time>
      </trkpt>
      <trkpt lat="46.96773" lon="-0.90565">
        <ele>107</ele>
        <time>2022-04-26T09:43:41Z</time>
      </trkpt>
      <trkpt lat="46.96787" lon="-0.90633">
        <ele>107</ele>
        <time>2022-04-26T09:44:20Z</time>
      </trkpt>
      <trkpt lat="46.96807" lon="-0.90699">
        <ele>107</ele>
        <time>2022-04-26T09:45:00Z</time>
      </trkpt>
      <trkpt lat="46.96802" lon="-0.9072">
        <ele>108</ele>
        <time>2022-04-26T09:45:12Z</time>
      </trkpt>
      <trkpt lat="46.96754" lon="-0.90704">
        <ele>110</ele>
        <time>2022-04-26T09:45:51Z</time>
      </trkpt>
      <trkpt lat="46.96741" lon="-0.90676">
        <ele>111</ele>
        <time>2022-04-26T09:46:10Z</time>
      </trkpt>
      <trkpt lat="46.96736" lon="-0.90615">
        <ele>110</ele>
        <time>2022-04-26T09:46:43Z</time>
      </trkpt>
      <trkpt lat="46.96727" lon="-0.90576">
        <ele>112</ele>
        <time>2022-04-26T09:47:06Z</time>
      </trkpt>
      <trkpt lat="46.96758" lon="-0.90557">
        <ele>107</ele>
        <time>2022-04-26T09:47:33Z</time>
      </trkpt>
      <trkpt lat="46.96772" lon="-0.90562">
        <ele>108</ele>
        <time>2022-04-26T09:47:44Z</time>
      </trkpt>
      <trkpt lat="46.96775" lon="-0.9056">
        <ele>108</ele>
        <time>2022-04-26T09:47:47Z</time>
      </trkpt>
      <trkpt lat="46.96767" lon="-0.90551">
        <ele>108</ele>
        <time>2022-04-26T09:47:55Z</time>
      </trkpt>
      <trkpt lat="46.96767" lon="-0.90542">
        <ele>108</ele>
        <time>2022-04-26T09:48:00Z</time>
      </trkpt>
      <trkpt lat="46.96761" lon="-0.9053">
        <ele>108</ele>
        <time>2022-04-26T09:48:08Z</time>
      </trkpt>
      <trkpt lat="46.96793" lon="-0.90467">
        <ele>110</ele>
        <time>2022-04-26T09:48:51Z</time>
      </trkpt>
      <trkpt lat="46.96797" lon="-0.90452">
        <ele>111</ele>
        <time>2022-04-26T09:49:00Z</time>
      </trkpt>
      <trkpt lat="46.96813" lon="-0.9042">
        <ele>113</ele>
        <time>2022-04-26T09:49:21Z</time>
      </trkpt>
      <trkpt lat="46.96824" lon="-0.90385">
        <ele>116</ele>
        <time>2022-04-26T09:49:42Z</time>
      </trkpt>
      <trkpt lat="46.96833" lon="-0.90372">
        <ele>118</ele>
        <time>2022-04-26T09:49:52Z</time>
      </trkpt>
      <trkpt lat="46.96839" lon="-0.90356">
        <ele>119</ele>
        <time>2022-04-26T09:50:02Z</time>
      </trkpt>
      <trkpt lat="46.96856" lon="-0.90334">
        <ele>119</ele>
        <time>2022-04-26T09:50:21Z</time>
      </trkpt>
      <trkpt lat="46.96872" lon="-0.90319">
        <ele>118</ele>
        <time>2022-04-26T09:50:36Z</time>
      </trkpt>
      <trkpt lat="46.96895" lon="-0.90305">
        <ele>117</ele>
        <time>2022-04-26T09:50:56Z</time>
      </trkpt>
      <trkpt lat="46.96915" lon="-0.90295">
        <ele>116</ele>
        <time>2022-04-26T09:51:13Z</time>
      </trkpt>
      <trkpt lat="46.96925" lon="-0.90286">
        <ele>116</ele>
        <time>2022-04-26T09:51:22Z</time>
      </trkpt>
      <trkpt lat="46.96926" lon="-0.90281">
        <ele>116</ele>
        <time>2022-04-26T09:51:25Z</time>
      </trkpt>
      <trkpt lat="46.96923" lon="-0.90277">
        <ele>117</ele>
        <time>2022-04-26T09:51:28Z</time>
      </trkpt>
      <trkpt lat="46.96883" lon="-0.90284">
        <ele>120</ele>
        <time>2022-04-26T09:52:00Z</time>
      </trkpt>
      <trkpt lat="46.96837" lon="-0.90323">
        <ele>122</ele>
        <time>2022-04-26T09:52:43Z</time>
      </trkpt>
      <trkpt lat="46.96806" lon="-0.90357">
        <ele>119</ele>
        <time>2022-04-26T09:53:14Z</time>
      </trkpt>
      <trkpt lat="46.96799" lon="-0.90379">
        <ele>117</ele>
        <time>2022-04-26T09:53:27Z</time>
      </trkpt>
      <trkpt lat="46.96782" lon="-0.90405">
        <ele>115</ele>
        <time>2022-04-26T09:53:47Z</time>
      </trkpt>
      <trkpt lat="46.96774" lon="-0.90419">
        <ele>114</ele>
        <time>2022-04-26T09:53:57Z</time>
      </trkpt>
      <trkpt lat="46.96785" lon="-0.90414">
        <ele>114</ele>
        <time>2022-04-26T09:54:06Z</time>
      </trkpt>
      <trkpt lat="46.96784" lon="-0.90424">
        <ele>113</ele>
        <time>2022-04-26T09:54:12Z</time>
      </trkpt>
      <trkpt lat="46.96778" lon="-0.90448">
        <ele>112</ele>
        <time>2022-04-26T09:54:26Z</time>
      </trkpt>
      <trkpt lat="46.96768" lon="-0.90467">
        <ele>110</ele>
        <time>2022-04-26T09:54:39Z</time>
      </trkpt>
      <trkpt lat="46.96749" lon="-0.90464">
        <ele>111</ele>
        <time>2022-04-26T09:54:54Z</time>
      </trkpt>
      <trkpt lat="46.96731" lon="-0.90468">
        <ele>111</ele>
        <time>2022-04-26T09:55:09Z</time>
      </trkpt>
      <trkpt lat="46.96728" lon="-0.90457">
        <ele>111</ele>
        <time>2022-04-26T09:55:15Z</time>
      </trkpt>
      <trkpt lat="46.96727" lon="-0.90422">
        <ele>112</ele>
        <time>2022-04-26T09:55:34Z</time>
      </trkpt>
      <trkpt lat="46.96722" lon="-0.90395">
        <ele>113</ele>
        <time>2022-04-26T09:55:49Z</time>
      </trkpt>
      <trkpt lat="46.96718" lon="-0.90341">
        <ele>115</ele>
        <time>2022-04-26T09:56:19Z</time>
      </trkpt>
      <trkpt lat="46.9669" lon="-0.90296">
        <ele>114</ele>
        <time>2022-04-26T09:56:52Z</time>
      </trkpt>
      <trkpt lat="46.96652" lon="-0.90262">
        <ele>112</ele>
        <time>2022-04-26T09:57:28Z</time>
      </trkpt>
      <trkpt lat="46.96638" lon="-0.90242">
        <ele>113</ele>
        <time>2022-04-26T09:57:44Z</time>
      </trkpt>
      <trkpt lat="46.96631" lon="-0.90234">
        <ele>113</ele>
        <time>2022-04-26T09:57:51Z</time>
      </trkpt>
      <trkpt lat="46.96612" lon="-0.90225">
        <ele>112</ele>
        <time>2022-04-26T09:58:07Z</time>
      </trkpt>
      <trkpt lat="46.96594" lon="-0.90205">
        <ele>111</ele>
        <time>2022-04-26T09:58:25Z</time>
      </trkpt>
      <trkpt lat="46.96596" lon="-0.90181">
        <ele>113</ele>
        <time>2022-04-26T09:58:38Z</time>
      </trkpt>
      <trkpt lat="46.96594" lon="-0.90176">
        <ele>113</ele>
        <time>2022-04-26T09:58:41Z</time>
      </trkpt>
      <trkpt lat="46.96568" lon="-0.90156">
        <ele>113</ele>
        <time>2022-04-26T09:59:05Z</time>
      </trkpt>
      <trkpt lat="46.96535" lon="-0.90153">
        <ele>111</ele>
        <time>2022-04-26T09:59:31Z</time>
      </trkpt>
      <trkpt lat="46.96526" lon="-0.9015">
        <ele>111</ele>
        <time>2022-04-26T09:59:39Z</time>
      </trkpt>
      <trkpt lat="46.96521" lon="-0.90142">
        <ele>112</ele>
        <time>2022-04-26T09:59:45Z</time>
      </trkpt>
      <trkpt lat="46.96492" lon="-0.90111">
        <ele>113</ele>
        <time>2022-04-26T10:00:13Z</time>
      </trkpt>
      <trkpt lat="46.96484" lon="-0.90108">
        <ele>113</ele>
        <time>2022-04-26T10:00:20Z</time>
      </trkpt>
      <trkpt lat="46.96484" lon="-0.90103">
        <ele>113</ele>
        <time>2022-04-26T10:00:23Z</time>
      </trkpt>
      <trkpt lat="46.96466" lon="-0.90056">
        <ele>115</ele>
        <time>2022-04-26T10:00:52Z</time>
      </trkpt>
      <trkpt lat="46.96468" lon="-0.89997">
        <ele>119</ele>
        <time>2022-04-26T10:01:24Z</time>
      </trkpt>
      <trkpt lat="46.96442" lon="-0.89872">
        <ele>115</ele>
        <time>2022-04-26T10:02:36Z</time>
      </trkpt>
      <trkpt lat="46.96447" lon="-0.8986">
        <ele>116</ele>
        <time>2022-04-26T10:02:43Z</time>
      </trkpt>
      <trkpt lat="46.96445" lon="-0.89843">
        <ele>116</ele>
        <time>2022-04-26T10:02:53Z</time>
      </trkpt>
      <trkpt lat="46.96445" lon="-0.89833">
        <ele>116</ele>
        <time>2022-04-26T10:02:58Z</time>
      </trkpt>
      <trkpt lat="46.96451" lon="-0.89824">
        <ele>118</ele>
        <time>2022-04-26T10:03:05Z</time>
      </trkpt>
      <trkpt lat="46.96427" lon="-0.89762">
        <ele>119</ele>
        <time>2022-04-26T10:03:44Z</time>
      </trkpt>
      <trkpt lat="46.9641" lon="-0.89747">
        <ele>119</ele>
        <time>2022-04-26T10:04:00Z</time>
      </trkpt>
      <trkpt lat="46.96341" lon="-0.89733">
        <ele>113</ele>
        <time>2022-04-26T10:04:56Z</time>
      </trkpt>
      <trkpt lat="46.96335" lon="-0.8973">
        <ele>113</ele>
        <time>2022-04-26T10:05:01Z</time>
      </trkpt>
      <trkpt lat="46.96313" lon="-0.8978">
        <ele>114</ele>
        <time>2022-04-26T10:05:33Z</time>
      </trkpt>
      <trkpt lat="46.96329" lon="-0.89799">
        <ele>113</ele>
        <time>2022-04-26T10:05:50Z</time>
      </trkpt>
      <trkpt lat="46.9634" lon="-0.89819">
        <ele>113</ele>
        <time>2022-04-26T10:06:04Z</time>
      </trkpt>
      <trkpt lat="46.96347" lon="-0.89839">
        <ele>113</ele>
        <time>2022-04-26T10:06:16Z</time>
      </trkpt>
      <trkpt lat="46.96376" lon="-0.89948">
        <ele>111</ele>
        <time>2022-04-26T10:07:20Z</time>
      </trkpt>
      <trkpt lat="46.964" lon="-0.90022">
        <ele>110</ele>
        <time>2022-04-26T10:08:05Z</time>
      </trkpt>
      <trkpt lat="46.96398" lon="-0.90038">
        <ele>110</ele>
        <time>2022-04-26T10:08:14Z</time>
      </trkpt>
      <trkpt lat="46.96329" lon="-0.90058">
        <ele>117</ele>
        <time>2022-04-26T10:09:10Z</time>
      </trkpt>
      <trkpt lat="46.9632" lon="-0.90055">
        <ele>119</ele>
        <time>2022-04-26T10:09:18Z</time>
      </trkpt>
      <trkpt lat="46.96306" lon="-0.9006">
        <ele>121</ele>
        <time>2022-04-26T10:09:29Z</time>
      </trkpt>
      <trkpt lat="46.96294" lon="-0.9007">
        <ele>123</ele>
        <time>2022-04-26T10:09:40Z</time>
      </trkpt>
      <trkpt lat="46.96276" lon="-0.90073">
        <ele>125</ele>
        <time>2022-04-26T10:09:55Z</time>
      </trkpt>
      <trkpt lat="46.96247" lon="-0.90062">
        <ele>129</ele>
        <time>2022-04-26T10:10:19Z</time>
      </trkpt>
      <trkpt lat="46.96235" lon="-0.90052">
        <ele>130</ele>
        <time>2022-04-26T10:10:30Z</time>
      </trkpt>
      <trkpt lat="46.96217" lon="-0.90045">
        <ele>132</ele>
        <time>2022-04-26T10:10:45Z</time>
      </trkpt>
      <trkpt lat="46.96194" lon="-0.90044">
        <ele>133</ele>
        <time>2022-04-26T10:11:03Z</time>
      </trkpt>
      <trkpt lat="46.96174" lon="-0.90075">
        <ele>134</ele>
        <time>2022-04-26T10:11:26Z</time>
      </trkpt>
      <trkpt lat="46.96162" lon="-0.90077">
        <ele>135</ele>
        <time>2022-04-26T10:11:36Z</time>
      </trkpt>
      <trkpt lat="46.96119" lon="-0.90085">
        <ele>140</ele>
        <time>2022-04-26T10:12:11Z</time>
      </trkpt>
      <trkpt lat="46.96042" lon="-0.90066">
        <ele>143</ele>
        <time>2022-04-26T10:13:13Z</time>
      </trkpt>
      <trkpt lat="46.95962" lon="-0.90041">
        <ele>143</ele>
        <time>2022-04-26T10:14:19Z</time>
      </trkpt>
      <trkpt lat="46.95952" lon="-0.90026">
        <ele>143</ele>
        <time>2022-04-26T10:14:30Z</time>
      </trkpt>
      <trkpt lat="46.95924" lon="-0.89983">
        <ele>141</ele>
        <time>2022-04-26T10:15:03Z</time>
      </trkpt>
    </trkseg>
  </trk>
</gpx>